메인 페이지
METAR-TAF:

METAR-TAF

공항 :

히베이랑프레투, 상파울루, 브라질

위도: 21-08S, 경도: 047-47W, 고도: 549m

현재 날씨관측

예보는 58분 전, 23:00시(UTC)에 발표되었습니다.
북북동7kt
온도 26°C
습도 74%
기압 1015 hPa
시정 10km 이상
고도 2000ft 상공 구름 보통
고도 3500ft 상공 구름 보통
시계 내 소나기,

METAR: SBRP 142300Z 03007KT 9999 VCSH SCT020 SCT035 26/21 Q1015

시각: 20:58 (23:58 UTC)

예보

예보는 1 시간 58분 전, 22:00시(UTC)에 발표되었습니다.
예보 대상 시간: 15일 00시부터 15일 12시까지 (UTC)
5kt
시정 10km 이상
1500m 미만 상공 구름 및 적란운 없음
전환 중
15일 10시부터 15일 12시까지 (UTC)
동북동10kt

TAF: SBRP 142200Z 1500/1512 09005KT CAVOK TN23/1508Z TX26/1512Z BECMG 1510/1512 06010KT RMK PHH

4,000개 이상의 공항 관측 자료 및 예보 (METAR 및 TAF 보고).

지도상에서 검색 가능한 기상관측소가 노란 점과 빨간 점으로 표시되어 있습니다.

기상관측소 명을 보려면 표시 위로 마우스를 이동하세요.

날씨 관측과 예보를 보려면 클릭하세요.

지도 변경 : 확대하려면 엑스 표시가 있는 녹색 버튼, 축소하려면 빼기 표시가 있는 녹색 버튼, 다음 페이지의 지도를 보려면 녹색 화살표를 클릭하세요.


METAR-TAF: